sensor_id;sensor_type;location;lat;lon;timestamp;temperature;humidity
38464;DHT22;24243;51.956;5.902;2024-01-11T00:02:14;18.50;49.70
38464;DHT22;24243;51.956;5.902;2024-01-11T00:04:40;18.50;49.70
38464;DHT22;24243;51.956;5.902;2024-01-11T00:07:06;18.50;49.70
38464;DHT22;24243;51.956;5.902;2024-01-11T00:09:32;18.50;49.70
38464;DHT22;24243;51.956;5.902;2024-01-11T00:11:57;18.40;49.70
38464;DHT22;24243;51.956;5.902;2024-01-11T00:14:23;18.40;49.70
38464;DHT22;24243;51.956;5.902;2024-01-11T00:16:49;18.40;49.70
38464;DHT22;24243;51.956;5.902;2024-01-11T00:19:15;18.40;49.70
38464;DHT22;24243;51.956;5.902;2024-01-11T00:21:41;18.40;49.70
38464;DHT22;24243;51.956;5.902;2024-01-11T00:24:06;18.40;49.70
38464;DHT22;24243;51.956;5.902;2024-01-11T00:26:32;18.40;49.70
38464;DHT22;24243;51.956;5.902;2024-01-11T00:28:58;18.30;49.60
38464;DHT22;24243;51.956;5.902;2024-01-11T00:31:24;18.30;49.70
38464;DHT22;24243;51.956;5.902;2024-01-11T00:33:49;18.30;49.70
38464;DHT22;24243;51.956;5.902;2024-01-11T00:36:18;18.30;49.70
38464;DHT22;24243;51.956;5.902;2024-01-11T00:38:47;18.30;49.70
38464;DHT22;24243;51.956;5.902;2024-01-11T00:41:13;18.30;49.70
38464;DHT22;24243;51.956;5.902;2024-01-11T00:43:38;18.30;49.70
38464;DHT22;24243;51.956;5.902;2024-01-11T00:46:04;18.30;49.70
38464;DHT22;24243;51.956;5.902;2024-01-11T00:48:30;18.20;49.70
38464;DHT22;24243;51.956;5.902;2024-01-11T00:50:56;18.20;49.70
38464;DHT22;24243;51.956;5.902;2024-01-11T00:53:22;18.20;49.70
38464;DHT22;24243;51.956;5.902;2024-01-11T00:55:47;18.20;49.70
38464;DHT22;24243;51.956;5.902;2024-01-11T00:58:13;18.20;49.70
38464;DHT22;24243;51.956;5.902;2024-01-11T01:00:39;18.20;50.30
38464;DHT22;24243;51.956;5.902;2024-01-11T01:03:04;18.20;49.70
38464;DHT22;24243;51.956;5.902;2024-01-11T01:05:30;18.10;49.60
38464;DHT22;24243;51.956;5.902;2024-01-11T01:07:56;18.20;49.70
38464;DHT22;24243;51.956;5.902;2024-01-11T01:10:22;18.10;49.60
38464;DHT22;24243;51.956;5.902;2024-01-11T01:12:48;18.10;49.70
38464;DHT22;24243;51.956;5.902;2024-01-11T01:15:17;18.10;49.70
38464;DHT22;24243;51.956;5.902;2024-01-11T01:17:46;18.00;50.30
38464;DHT22;24243;51.956;5.902;2024-01-11T01:20:12;18.00;49.70
38464;DHT22;24243;51.956;5.902;2024-01-11T01:22:37;18.00;49.70
38464;DHT22;24243;51.956;5.902;2024-01-11T01:25:03;18.00;49.70
38464;DHT22;24243;51.956;5.902;2024-01-11T01:27:29;18.00;50.30
38464;DHT22;24243;51.956;5.902;2024-01-11T01:29:55;18.00;49.60
38464;DHT22;24243;51.956;5.902;2024-01-11T01:32:21;18.00;49.70
38464;DHT22;24243;51.956;5.902;2024-01-11T01:34:46;18.00;49.70
38464;DHT22;24243;51.956;5.902;2024-01-11T01:37:12;18.00;49.70
38464;DHT22;24243;51.956;5.902;2024-01-11T01:39:38;18.00;49.70
38464;DHT22;24243;51.956;5.902;2024-01-11T01:42:05;18.00;49.70
38464;DHT22;24243;51.956;5.902;2024-01-11T01:44:33;17.90;49.80
38464;DHT22;24243;51.956;5.902;2024-01-11T01:47:03;17.90;49.60
38464;DHT22;24243;51.956;5.902;2024-01-11T01:49:29;17.90;49.60
38464;DHT22;24243;51.956;5.902;2024-01-11T01:51:55;17.90;49.60
38464;DHT22;24243;51.956;5.902;2024-01-11T01:54:23;17.90;49.70
38464;DHT22;24243;51.956;5.902;2024-01-11T01:56:49;17.90;49.70
38464;DHT22;24243;51.956;5.902;2024-01-11T01:59:16;17.90;49.70
38464;DHT22;24243;51.956;5.902;2024-01-11T02:01:42;17.90;49.70
38464;DHT22;24243;51.956;5.902;2024-01-11T02:04:08;17.80;49.60
38464;DHT22;24243;51.956;5.902;2024-01-11T02:06:34;17.90;49.60
38464;DHT22;24243;51.956;5.902;2024-01-11T02:09:01;17.80;49.60
38464;DHT22;24243;51.956;5.902;2024-01-11T02:11:30;17.90;49.60
38464;DHT22;24243;51.956;5.902;2024-01-11T02:13:56;17.80;49.60
38464;DHT22;24243;51.956;5.902;2024-01-11T02:16:23;17.80;49.60
38464;DHT22;24243;51.956;5.902;2024-01-11T02:18:49;17.80;49.60
38464;DHT22;24243;51.956;5.902;2024-01-11T02:21:16;17.80;49.60
38464;DHT22;24243;51.956;5.902;2024-01-11T02:23:44;17.80;49.60
38464;DHT22;24243;51.956;5.902;2024-01-11T02:26:15;17.80;50.30
38464;DHT22;24243;51.956;5.902;2024-01-11T02:28:45;17.70;49.50
38464;DHT22;24243;51.956;5.902;2024-01-11T02:31:12;17.80;49.60
38464;DHT22;24243;51.956;5.902;2024-01-11T02:33:39;17.80;49.60
38464;DHT22;24243;51.956;5.902;2024-01-11T02:36:06;17.70;49.60
38464;DHT22;24243;51.956;5.902;2024-01-11T02:38:32;17.70;49.50
38464;DHT22;24243;51.956;5.902;2024-01-11T02:41:00;17.70;49.50
38464;DHT22;24243;51.956;5.902;2024-01-11T02:43:25;17.70;49.50
38464;DHT22;24243;51.956;5.902;2024-01-11T02:45:55;17.70;49.50
38464;DHT22;24243;51.956;5.902;2024-01-11T02:48:21;17.70;49.50
38464;DHT22;24243;51.956;5.902;2024-01-11T02:50:48;17.70;49.60
38464;DHT22;24243;51.956;5.902;2024-01-11T02:53:14;17.70;49.50
38464;DHT22;24243;51.956;5.902;2024-01-11T02:55:40;17.70;49.50
38464;DHT22;24243;51.956;5.902;2024-01-11T02:58:06;17.60;49.50
38464;DHT22;24243;51.956;5.902;2024-01-11T03:00:31;17.60;49.50
38464;DHT22;24243;51.956;5.902;2024-01-11T03:02:57;17.60;49.50
38464;DHT22;24243;51.956;5.902;2024-01-11T03:05:23;17.60;49.50
38464;DHT22;24243;51.956;5.902;2024-01-11T03:07:49;17.60;49.50
38464;DHT22;24243;51.956;5.902;2024-01-11T03:10:17;17.60;49.50
38464;DHT22;24243;51.956;5.902;2024-01-11T03:12:43;17.60;49.50
38464;DHT22;24243;51.956;5.902;2024-01-11T03:15:09;17.60;49.50
38464;DHT22;24243;51.956;5.902;2024-01-11T03:17:35;17.60;49.50
38464;DHT22;24243;51.956;5.902;2024-01-11T03:20:01;17.60;49.50
38464;DHT22;24243;51.956;5.902;2024-01-11T03:22:29;17.60;49.50
38464;DHT22;24243;51.956;5.902;2024-01-11T03:24:54;17.50;49.40
38464;DHT22;24243;51.956;5.902;2024-01-11T03:27:20;17.50;49.40
38464;DHT22;24243;51.956;5.902;2024-01-11T03:29:46;17.50;49.40
38464;DHT22;24243;51.956;5.902;2024-01-11T03:32:12;17.50;49.40
38464;DHT22;24243;51.956;5.902;2024-01-11T03:34:39;17.50;49.40
38464;DHT22;24243;51.956;5.902;2024-01-11T03:37:05;17.50;49.40
38464;DHT22;24243;51.956;5.902;2024-01-11T03:39:34;17.50;49.50
38464;DHT22;24243;51.956;5.902;2024-01-11T03:42:00;17.50;49.40
38464;DHT22;24243;51.956;5.902;2024-01-11T03:44:25;17.50;49.40
38464;DHT22;24243;51.956;5.902;2024-01-11T03:46:51;17.50;49.40
38464;DHT22;24243;51.956;5.902;2024-01-11T03:49:17;17.50;49.40
38464;DHT22;24243;51.956;5.902;2024-01-11T03:51:43;17.40;49.30
38464;DHT22;24243;51.956;5.902;2024-01-11T03:54:10;17.40;49.30
38464;DHT22;24243;51.956;5.902;2024-01-11T03:56:39;17.40;49.30
38464;DHT22;24243;51.956;5.902;2024-01-11T03:59:05;17.50;49.40
38464;DHT22;24243;51.956;5.902;2024-01-11T04:01:38;17.40;49.30
38464;DHT22;24243;51.956;5.902;2024-01-11T04:04:03;17.40;49.30
38464;DHT22;24243;51.956;5.902;2024-01-11T04:06:29;17.40;49.40
38464;DHT22;24243;51.956;5.902;2024-01-11T04:08:55;17.40;49.30
38464;DHT22;24243;51.956;5.902;2024-01-11T04:11:22;17.40;49.30
38464;DHT22;24243;51.956;5.902;2024-01-11T04:13:47;17.40;49.30
38464;DHT22;24243;51.956;5.902;2024-01-11T04:16:14;17.40;49.30
38464;DHT22;24243;51.956;5.902;2024-01-11T04:18:40;17.40;49.30
38464;DHT22;24243;51.956;5.902;2024-01-11T04:21:06;17.40;49.30
38464;DHT22;24243;51.956;5.902;2024-01-11T04:23:32;17.30;49.30
38464;DHT22;24243;51.956;5.902;2024-01-11T04:25:57;17.40;49.30
38464;DHT22;24243;51.956;5.902;2024-01-11T04:28:26;17.30;49.30
38464;DHT22;24243;51.956;5.902;2024-01-11T04:30:52;17.30;49.30
38464;DHT22;24243;51.956;5.902;2024-01-11T04:33:17;17.30;49.30
38464;DHT22;24243;51.956;5.902;2024-01-11T04:35:43;17.30;49.30
38464;DHT22;24243;51.956;5.902;2024-01-11T04:38:09;17.30;49.30
38464;DHT22;24243;51.956;5.902;2024-01-11T04:40:35;17.30;49.30
38464;DHT22;24243;51.956;5.902;2024-01-11T04:43:00;17.30;49.30
38464;DHT22;24243;51.956;5.902;2024-01-11T04:45:27;17.30;49.30
38464;DHT22;24243;51.956;5.902;2024-01-11T04:47:52;17.30;49.30
38464;DHT22;24243;51.956;5.902;2024-01-11T04:50:18;17.30;49.30
38464;DHT22;24243;51.956;5.902;2024-01-11T04:52:46;17.30;49.30
38464;DHT22;24243;51.956;5.902;2024-01-11T04:55:12;17.30;49.30
38464;DHT22;24243;51.956;5.902;2024-01-11T04:57:38;17.20;49.20
38464;DHT22;24243;51.956;5.902;2024-01-11T05:00:04;17.30;49.20
38464;DHT22;24243;51.956;5.902;2024-01-11T05:02:30;17.20;49.20
38464;DHT22;24243;51.956;5.902;2024-01-11T05:04:56;17.20;49.20
38464;DHT22;24243;51.956;5.902;2024-01-11T05:07:22;17.20;49.20
38464;DHT22;24243;51.956;5.902;2024-01-11T05:09:47;17.20;49.20
38464;DHT22;24243;51.956;5.902;2024-01-11T05:12:13;17.20;49.20
38464;DHT22;24243;51.956;5.902;2024-01-11T05:14:39;17.20;49.20
38464;DHT22;24243;51.956;5.902;2024-01-11T05:17:05;17.20;49.20
38464;DHT22;24243;51.956;5.902;2024-01-11T05:19:30;17.20;49.20
38464;DHT22;24243;51.956;5.902;2024-01-11T05:21:56;17.20;49.10
38464;DHT22;24243;51.956;5.902;2024-01-11T05:24:22;17.10;49.10
38464;DHT22;24243;51.956;5.902;2024-01-11T05:26:48;17.20;49.10
38464;DHT22;24243;51.956;5.902;2024-01-11T05:29:13;17.10;49.00
38464;DHT22;24243;51.956;5.902;2024-01-11T05:31:39;17.20;49.10
38464;DHT22;24243;51.956;5.902;2024-01-11T05:34:05;17.10;49.00
38464;DHT22;24243;51.956;5.902;2024-01-11T05:36:34;17.10;49.10
38464;DHT22;24243;51.956;5.902;2024-01-11T05:39:00;17.10;49.10
38464;DHT22;24243;51.956;5.902;2024-01-11T05:41:25;17.10;49.00
38464;DHT22;24243;51.956;5.902;2024-01-11T05:43:51;17.10;49.00
38464;DHT22;24243;51.956;5.902;2024-01-11T05:46:17;17.10;49.00
38464;DHT22;24243;51.956;5.902;2024-01-11T05:48:42;17.10;49.00
38464;DHT22;24243;51.956;5.902;2024-01-11T05:51:09;17.10;49.00
38464;DHT22;24243;51.956;5.902;2024-01-11T05:53:35;17.10;49.00
38464;DHT22;24243;51.956;5.902;2024-01-11T05:56:01;17.10;49.00
38464;DHT22;24243;51.956;5.902;2024-01-11T05:58:28;17.10;49.00
38464;DHT22;24243;51.956;5.902;2024-01-11T06:00:54;17.10;48.90
38464;DHT22;24243;51.956;5.902;2024-01-11T06:03:21;17.10;49.00
38464;DHT22;24243;51.956;5.902;2024-01-11T06:05:49;17.00;48.90
38464;DHT22;24243;51.956;5.902;2024-01-11T06:08:15;17.00;48.90
38464;DHT22;24243;51.956;5.902;2024-01-11T06:10:40;17.00;48.90
38464;DHT22;24243;51.956;5.902;2024-01-11T06:13:07;17.00;48.90
38464;DHT22;24243;51.956;5.902;2024-01-11T06:15:33;17.00;48.90
38464;DHT22;24243;51.956;5.902;2024-01-11T06:17:59;17.00;48.90
38464;DHT22;24243;51.956;5.902;2024-01-11T06:20:25;17.00;48.80
38464;DHT22;24243;51.956;5.902;2024-01-11T06:22:51;17.00;48.80
38464;DHT22;24243;51.956;5.902;2024-01-11T06:25:17;17.00;48.80
38464;DHT22;24243;51.956;5.902;2024-01-11T06:27:44;17.00;48.80
38464;DHT22;24243;51.956;5.902;2024-01-11T06:30:10;17.00;48.70
38464;DHT22;24243;51.956;5.902;2024-01-11T06:32:36;17.00;48.70
38464;DHT22;24243;51.956;5.902;2024-01-11T06:35:02;17.00;48.60
38464;DHT22;24243;51.956;5.902;2024-01-11T06:37:28;17.00;48.60
38464;DHT22;24243;51.956;5.902;2024-01-11T06:39:54;17.00;48.60
38464;DHT22;24243;51.956;5.902;2024-01-11T06:42:20;17.00;48.60
38464;DHT22;24243;51.956;5.902;2024-01-11T06:44:46;17.00;48.50
38464;DHT22;24243;51.956;5.902;2024-01-11T06:47:11;16.90;48.20
38464;DHT22;24243;51.956;5.902;2024-01-11T06:49:41;16.90;48.20
38464;DHT22;24243;51.956;5.902;2024-01-11T06:52:06;16.90;48.20
38464;DHT22;24243;51.956;5.902;2024-01-11T06:54:32;16.90;48.10
38464;DHT22;24243;51.956;5.902;2024-01-11T06:57:00;16.90;48.20
38464;DHT22;24243;51.956;5.902;2024-01-11T06:59:26;16.90;48.30
38464;DHT22;24243;51.956;5.902;2024-01-11T07:01:52;16.90;48.30
38464;DHT22;24243;51.956;5.902;2024-01-11T07:04:18;16.90;48.40
38464;DHT22;24243;51.956;5.902;2024-01-11T07:06:44;16.90;48.50
38464;DHT22;24243;51.956;5.902;2024-01-11T07:09:10;16.90;48.50
38464;DHT22;24243;51.956;5.902;2024-01-11T07:11:36;16.90;48.50
38464;DHT22;24243;51.956;5.902;2024-01-11T07:14:02;16.90;48.50
38464;DHT22;24243;51.956;5.902;2024-01-11T07:16:30;16.90;48.60
38464;DHT22;24243;51.956;5.902;2024-01-11T07:18:56;16.90;48.60
38464;DHT22;24243;51.956;5.902;2024-01-11T07:21:25;16.90;48.60
38464;DHT22;24243;51.956;5.902;2024-01-11T07:24:00;16.90;48.60
38464;DHT22;24243;51.956;5.902;2024-01-11T07:26:27;16.90;48.60
38464;DHT22;24243;51.956;5.902;2024-01-11T07:28:53;16.90;48.70
38464;DHT22;24243;51.956;5.902;2024-01-11T07:31:22;16.90;48.70
38464;DHT22;24243;51.956;5.902;2024-01-11T07:33:48;16.90;48.80
38464;DHT22;24243;51.956;5.902;2024-01-11T07:36:14;16.90;48.80
38464;DHT22;24243;51.956;5.902;2024-01-11T07:38:40;16.90;49.40
38464;DHT22;24243;51.956;5.902;2024-01-11T07:41:06;16.90;48.80
38464;DHT22;24243;51.956;5.902;2024-01-11T07:43:31;16.90;48.80
38464;DHT22;24243;51.956;5.902;2024-01-11T07:46:03;16.90;48.80
38464;DHT22;24243;51.956;5.902;2024-01-11T07:48:31;16.90;48.80
38464;DHT22;24243;51.956;5.902;2024-01-11T07:50:58;16.90;48.80
38464;DHT22;24243;51.956;5.902;2024-01-11T07:53:24;16.90;48.80
38464;DHT22;24243;51.956;5.902;2024-01-11T07:55:51;16.90;48.80
38464;DHT22;24243;51.956;5.902;2024-01-11T07:58:16;16.90;48.70
38464;DHT22;24243;51.956;5.902;2024-01-11T08:00:42;16.90;48.70
38464;DHT22;24243;51.956;5.902;2024-01-11T08:03:08;16.90;48.70
38464;DHT22;24243;51.956;5.902;2024-01-11T08:05:35;16.90;48.60
38464;DHT22;24243;51.956;5.902;2024-01-11T08:08:00;16.90;48.60
38464;DHT22;24243;51.956;5.902;2024-01-11T08:10:29;16.90;48.60
38464;DHT22;24243;51.956;5.902;2024-01-11T08:12:56;16.90;48.50
38464;DHT22;24243;51.956;5.902;2024-01-11T08:15:22;16.90;48.50
38464;DHT22;24243;51.956;5.902;2024-01-11T08:17:48;16.90;48.40
38464;DHT22;24243;51.956;5.902;2024-01-11T08:20:14;16.90;48.40
38464;DHT22;24243;51.956;5.902;2024-01-11T08:22:41;16.90;48.40
38464;DHT22;24243;51.956;5.902;2024-01-11T08:25:09;16.90;48.40
38464;DHT22;24243;51.956;5.902;2024-01-11T08:27:35;16.90;49.00
38464;DHT22;24243;51.956;5.902;2024-01-11T08:30:01;16.90;48.40
38464;DHT22;24243;51.956;5.902;2024-01-11T08:32:27;16.90;48.40
38464;DHT22;24243;51.956;5.902;2024-01-11T08:34:56;16.90;49.00
38464;DHT22;24243;51.956;5.902;2024-01-11T08:37:22;16.90;48.40
38464;DHT22;24243;51.956;5.902;2024-01-11T08:39:49;16.90;48.40
38464;DHT22;24243;51.956;5.902;2024-01-11T08:42:14;16.90;48.40
38464;DHT22;24243;51.956;5.902;2024-01-11T08:44:43;16.90;48.40
38464;DHT22;24243;51.956;5.902;2024-01-11T08:47:10;16.90;48.40
38464;DHT22;24243;51.956;5.902;2024-01-11T08:49:39;16.90;48.30
38464;DHT22;24243;51.956;5.902;2024-01-11T08:52:05;16.90;48.30
38464;DHT22;24243;51.956;5.902;2024-01-11T08:54:31;16.90;48.20
38464;DHT22;24243;51.956;5.902;2024-01-11T08:57:01;16.80;48.20
38464;DHT22;24243;51.956;5.902;2024-01-11T08:59:27;16.80;48.10
38464;DHT22;24243;51.956;5.902;2024-01-11T09:01:53;16.90;48.20
38464;DHT22;24243;51.956;5.902;2024-01-11T09:04:18;16.80;48.20
38464;DHT22;24243;51.956;5.902;2024-01-11T09:06:44;16.90;48.20
38464;DHT22;24243;51.956;5.902;2024-01-11T09:09:11;16.90;48.20
38464;DHT22;24243;51.956;5.902;2024-01-11T09:11:40;16.80;48.20
38464;DHT22;24243;51.956;5.902;2024-01-11T09:14:08;16.80;48.20
38464;DHT22;24243;51.956;5.902;2024-01-11T09:16:38;16.90;48.30
38464;DHT22;24243;51.956;5.902;2024-01-11T09:19:05;16.90;48.40
38464;DHT22;24243;51.956;5.902;2024-01-11T09:21:31;16.90;48.50
38464;DHT22;24243;51.956;5.902;2024-01-11T09:23:57;16.90;48.60
38464;DHT22;24243;51.956;5.902;2024-01-11T09:26:23;16.90;48.60
38464;DHT22;24243;51.956;5.902;2024-01-11T09:28:49;16.90;48.70
38464;DHT22;24243;51.956;5.902;2024-01-11T09:31:14;17.00;48.80
38464;DHT22;24243;51.956;5.902;2024-01-11T09:33:40;17.00;48.80
38464;DHT22;24243;51.956;5.902;2024-01-11T09:36:08;17.00;48.90
38464;DHT22;24243;51.956;5.902;2024-01-11T09:38:33;17.00;48.90
38464;DHT22;24243;51.956;5.902;2024-01-11T09:43:34;17.10;49.20
38464;DHT22;24243;51.956;5.902;2024-01-11T09:46:10;17.10;49.20
38464;DHT22;24243;51.956;5.902;2024-01-11T09:48:39;17.10;49.30
38464;DHT22;24243;51.956;5.902;2024-01-11T09:51:09;17.10;49.30
38464;DHT22;24243;51.956;5.902;2024-01-11T09:53:39;17.10;49.40
38464;DHT22;24243;51.956;5.902;2024-01-11T09:56:08;17.20;49.50
38464;DHT22;24243;51.956;5.902;2024-01-11T09:58:35;17.20;49.60
38464;DHT22;24243;51.956;5.902;2024-01-11T10:01:09;17.20;49.60
38464;DHT22;24243;51.956;5.902;2024-01-11T10:03:36;17.30;49.70
38464;DHT22;24243;51.956;5.902;2024-01-11T10:06:02;17.30;49.80
38464;DHT22;24243;51.956;5.902;2024-01-11T10:08:30;17.30;49.80
38464;DHT22;24243;51.956;5.902;2024-01-11T10:10:57;17.40;49.90
38464;DHT22;24243;51.956;5.902;2024-01-11T10:13:30;17.40;49.90
38464;DHT22;24243;51.956;5.902;2024-01-11T10:16:07;17.40;50.00
38464;DHT22;24243;51.956;5.902;2024-01-11T10:18:34;17.40;50.00
38464;DHT22;24243;51.956;5.902;2024-01-11T10:20:59;17.50;50.10
38464;DHT22;24243;51.956;5.902;2024-01-11T10:23:25;17.50;50.10
38464;DHT22;24243;51.956;5.902;2024-01-11T10:25:55;17.50;50.10
38464;DHT22;24243;51.956;5.902;2024-01-11T10:28:21;17.50;50.10
38464;DHT22;24243;51.956;5.902;2024-01-11T10:30:47;17.60;50.20
38464;DHT22;24243;51.956;5.902;2024-01-11T10:33:13;17.60;50.30
38464;DHT22;24243;51.956;5.902;2024-01-11T10:35:39;17.60;50.30
38464;DHT22;24243;51.956;5.902;2024-01-11T10:38:09;17.60;50.20
38464;DHT22;24243;51.956;5.902;2024-01-11T10:40:36;17.60;50.20
38464;DHT22;24243;51.956;5.902;2024-01-11T10:43:03;17.70;50.30
38464;DHT22;24243;51.956;5.902;2024-01-11T10:45:32;17.70;50.40
38464;DHT22;24243;51.956;5.902;2024-01-11T10:48:07;17.70;50.40
38464;DHT22;24243;51.956;5.902;2024-01-11T10:50:36;17.70;50.30
38464;DHT22;24243;51.956;5.902;2024-01-11T10:55:51;17.80;50.40
38464;DHT22;24243;51.956;5.902;2024-01-11T10:58:18;17.80;50.40
38464;DHT22;24243;51.956;5.902;2024-01-11T11:00:45;17.80;50.30
38464;DHT22;24243;51.956;5.902;2024-01-11T11:03:12;17.90;50.30
38464;DHT22;24243;51.956;5.902;2024-01-11T11:05:40;17.90;50.20
38464;DHT22;24243;51.956;5.902;2024-01-11T11:08:07;17.90;50.20
38464;DHT22;24243;51.956;5.902;2024-01-11T11:10:34;17.90;50.20
38464;DHT22;24243;51.956;5.902;2024-01-11T11:13:00;17.90;50.20
38464;DHT22;24243;51.956;5.902;2024-01-11T11:15:28;18.00;50.30
38464;DHT22;24243;51.956;5.902;2024-01-11T11:17:54;18.00;50.20
38464;DHT22;24243;51.956;5.902;2024-01-11T11:20:20;18.00;50.30
38464;DHT22;24243;51.956;5.902;2024-01-11T11:23:19;18.00;50.20
38464;DHT22;24243;51.956;5.902;2024-01-11T11:25:45;18.00;49.90
38464;DHT22;24243;51.956;5.902;2024-01-11T11:28:13;17.90;50.00
38464;DHT22;24243;51.956;5.902;2024-01-11T11:30:41;17.90;49.90
38464;DHT22;24243;51.956;5.902;2024-01-11T11:33:16;17.90;49.80
38464;DHT22;24243;51.956;5.902;2024-01-11T11:35:42;17.90;49.70
38464;DHT22;24243;51.956;5.902;2024-01-11T11:38:08;17.90;49.60
38464;DHT22;24243;51.956;5.902;2024-01-11T11:40:38;17.90;49.60
38464;DHT22;24243;51.956;5.902;2024-01-11T11:43:08;17.80;49.40
38464;DHT22;24243;51.956;5.902;2024-01-11T11:45:35;17.80;49.40
38464;DHT22;24243;51.956;5.902;2024-01-11T11:48:01;17.80;49.30
38464;DHT22;24243;51.956;5.902;2024-01-11T11:50:42;17.80;49.20
38464;DHT22;24243;51.956;5.902;2024-01-11T11:53:10;17.80;49.10
38464;DHT22;24243;51.956;5.902;2024-01-11T11:55:36;17.80;49.00
38464;DHT22;24243;51.956;5.902;2024-01-11T11:58:02;17.70;49.00
38464;DHT22;24243;51.956;5.902;2024-01-11T12:00:28;17.70;49.00
38464;DHT22;24243;51.956;5.902;2024-01-11T12:02:57;17.70;48.90
38464;DHT22;24243;51.956;5.902;2024-01-11T12:05:23;17.70;48.80
38464;DHT22;24243;51.956;5.902;2024-01-11T12:07:49;17.70;48.70
38464;DHT22;24243;51.956;5.902;2024-01-11T12:10:15;17.70;48.70
38464;DHT22;24243;51.956;5.902;2024-01-11T12:12:40;17.60;48.60
38464;DHT22;24243;51.956;5.902;2024-01-11T12:15:07;17.60;48.60
38464;DHT22;24243;51.956;5.902;2024-01-11T12:17:33;17.60;48.50
38464;DHT22;24243;51.956;5.902;2024-01-11T12:19:59;17.60;48.50
38464;DHT22;24243;51.956;5.902;2024-01-11T12:22:25;17.60;48.50
38464;DHT22;24243;51.956;5.902;2024-01-11T12:24:51;17.60;48.50
38464;DHT22;24243;51.956;5.902;2024-01-11T12:27:17;17.60;48.70
38464;DHT22;24243;51.956;5.902;2024-01-11T12:29:43;17.60;48.80
38464;DHT22;24243;51.956;5.902;2024-01-11T12:32:09;17.50;48.80
38464;DHT22;24243;51.956;5.902;2024-01-11T12:34:37;17.50;48.90
38464;DHT22;24243;51.956;5.902;2024-01-11T12:37:05;17.50;49.00
38464;DHT22;24243;51.956;5.902;2024-01-11T12:39:31;17.50;49.10
38464;DHT22;24243;51.956;5.902;2024-01-11T12:41:57;17.50;49.20
38464;DHT22;24243;51.956;5.902;2024-01-11T12:44:23;17.50;49.20
38464;DHT22;24243;51.956;5.902;2024-01-11T12:46:51;17.50;49.40
38464;DHT22;24243;51.956;5.902;2024-01-11T12:49:16;17.60;49.50
38464;DHT22;24243;51.956;5.902;2024-01-11T12:51:42;17.50;49.60
38464;DHT22;24243;51.956;5.902;2024-01-11T12:54:13;17.60;49.80
38464;DHT22;24243;51.956;5.902;2024-01-11T12:56:43;17.60;49.90
38464;DHT22;24243;51.956;5.902;2024-01-11T12:59:09;17.60;50.10
38464;DHT22;24243;51.956;5.902;2024-01-11T13:01:39;17.60;50.10
38464;DHT22;24243;51.956;5.902;2024-01-11T13:04:05;17.60;50.20
38464;DHT22;24243;51.956;5.902;2024-01-11T13:06:33;17.60;50.30
38464;DHT22;24243;51.956;5.902;2024-01-11T13:09:00;17.60;50.40
38464;DHT22;24243;51.956;5.902;2024-01-11T13:11:26;17.70;50.60
38464;DHT22;24243;51.956;5.902;2024-01-11T13:13:53;17.70;50.70
38464;DHT22;24243;51.956;5.902;2024-01-11T13:16:19;17.70;50.70
38464;DHT22;24243;51.956;5.902;2024-01-11T13:18:46;17.70;50.80
38464;DHT22;24243;51.956;5.902;2024-01-11T13:21:12;17.70;50.90
38464;DHT22;24243;51.956;5.902;2024-01-11T13:23:38;17.80;51.00
38464;DHT22;24243;51.956;5.902;2024-01-11T13:26:06;17.80;51.00
38464;DHT22;24243;51.956;5.902;2024-01-11T13:28:35;17.80;51.10
38464;DHT22;24243;51.956;5.902;2024-01-11T13:31:01;17.80;51.20
38464;DHT22;24243;51.956;5.902;2024-01-11T13:33:28;17.80;51.20
38464;DHT22;24243;51.956;5.902;2024-01-11T13:35:54;17.90;51.30
38464;DHT22;24243;51.956;5.902;2024-01-11T13:38:20;17.90;51.30
38464;DHT22;24243;51.956;5.902;2024-01-11T13:40:46;17.90;51.30
38464;DHT22;24243;51.956;5.902;2024-01-11T13:43:11;17.90;51.30
38464;DHT22;24243;51.956;5.902;2024-01-11T13:45:37;17.90;51.30
38464;DHT22;24243;51.956;5.902;2024-01-11T13:48:04;18.00;52.00
38464;DHT22;24243;51.956;5.902;2024-01-11T13:50:30;18.00;51.40
38464;DHT22;24243;51.956;5.902;2024-01-11T13:52:56;18.00;51.50
38464;DHT22;24243;51.956;5.902;2024-01-11T13:55:22;18.00;51.50
38464;DHT22;24243;51.956;5.902;2024-01-11T13:57:51;18.10;51.50
38464;DHT22;24243;51.956;5.902;2024-01-11T14:00:18;18.10;51.60
38464;DHT22;24243;51.956;5.902;2024-01-11T14:02:44;18.10;51.60
38464;DHT22;24243;51.956;5.902;2024-01-11T14:05:11;18.10;51.60
38464;DHT22;24243;51.956;5.902;2024-01-11T14:07:42;18.10;51.60
38464;DHT22;24243;51.956;5.902;2024-01-11T14:10:11;18.20;51.70
38464;DHT22;24243;51.956;5.902;2024-01-11T14:12:37;18.20;51.80
38464;DHT22;24243;51.956;5.902;2024-01-11T14:15:05;18.20;51.80
38464;DHT22;24243;51.956;5.902;2024-01-11T14:17:35;18.30;51.80
38464;DHT22;24243;51.956;5.902;2024-01-11T14:20:00;18.30;51.80
38464;DHT22;24243;51.956;5.902;2024-01-11T14:22:26;18.20;51.80
38464;DHT22;24243;51.956;5.902;2024-01-11T14:24:52;18.30;51.80
38464;DHT22;24243;51.956;5.902;2024-01-11T14:27:20;18.30;51.80
38464;DHT22;24243;51.956;5.902;2024-01-11T14:29:47;18.30;51.80
38464;DHT22;24243;51.956;5.902;2024-01-11T14:32:13;18.30;51.90
38464;DHT22;24243;51.956;5.902;2024-01-11T14:34:42;18.30;51.80
38464;DHT22;24243;51.956;5.902;2024-01-11T14:37:10;18.30;51.80
38464;DHT22;24243;51.956;5.902;2024-01-11T14:39:36;18.40;51.90
38464;DHT22;24243;51.956;5.902;2024-01-11T14:42:02;18.30;51.80
38464;DHT22;24243;51.956;5.902;2024-01-11T14:44:27;18.40;51.80
38464;DHT22;24243;51.956;5.902;2024-01-11T14:46:53;18.40;51.70
38464;DHT22;24243;51.956;5.902;2024-01-11T14:49:19;18.40;51.70
38464;DHT22;24243;51.956;5.902;2024-01-11T14:51:45;18.40;51.70
38464;DHT22;24243;51.956;5.902;2024-01-11T14:54:11;18.50;51.70
38464;DHT22;24243;51.956;5.902;2024-01-11T14:56:36;18.50;51.60
38464;DHT22;24243;51.956;5.902;2024-01-11T14:59:02;18.50;51.60
38464;DHT22;24243;51.956;5.902;2024-01-11T15:01:29;18.50;51.50
38464;DHT22;24243;51.956;5.902;2024-01-11T15:03:55;18.50;51.50
38464;DHT22;24243;51.956;5.902;2024-01-11T15:06:20;18.50;51.50
38464;DHT22;24243;51.956;5.902;2024-01-11T15:08:46;18.50;51.50
38464;DHT22;24243;51.956;5.902;2024-01-11T15:11:12;18.50;51.40
38464;DHT22;24243;51.956;5.902;2024-01-11T15:13:38;18.50;51.30
38464;DHT22;24243;51.956;5.902;2024-01-11T15:16:04;18.60;51.40
38464;DHT22;24243;51.956;5.902;2024-01-11T15:18:29;18.60;51.30
38464;DHT22;24243;51.956;5.902;2024-01-11T15:20:55;18.60;51.30
38464;DHT22;24243;51.956;5.902;2024-01-11T15:23:21;18.60;51.30
38464;DHT22;24243;51.956;5.902;2024-01-11T15:25:47;18.60;51.30
38464;DHT22;24243;51.956;5.902;2024-01-11T15:28:13;18.60;51.30
38464;DHT22;24243;51.956;5.902;2024-01-11T15:30:38;18.60;51.30
38464;DHT22;24243;51.956;5.902;2024-01-11T15:33:04;18.60;51.30